Time;durP1;ratioP1;P1;durP2;ratioP2;P2;SDS_P1;SDS_P2;PMS_P1;PMS_P2;Temp;Humidity;BMP_temperature;BMP_pressure;BME280_temperature;BME280_humidity;BME280_pressure;Samples;Min_cycle;Max_cycle;Signal;HPM_P1;HPM_P2
2023/07/18 00:00:27;;;;;;;18.23;6.35;;;;;;;28.65;54.98;100805.16;4967521;28;19914;-81
2023/07/18 00:03:19;;;;;;;9.90;6.05;;;;;;;28.81;54.86;100813.59;4978198;28;20519;-81
2023/07/18 00:06:13;;;;;;;12.23;5.72;;;;;;;29.09;53.98;100814.13;4982149;28;20444;-81
2023/07/18 00:09:08;;;;;;;13.27;5.60;;;;;;;29.17;53.79;100804.28;4965272;28;20408;-81
2023/07/18 00:12:00;;;;;;;12.35;5.10;;;;;;;28.98;54.33;100808.00;4983051;28;20641;-80
2023/07/18 00:14:52;;;;;;;16.30;5.85;;;;;;;28.70;55.25;100810.25;4991732;28;20517;-81
2023/07/18 00:17:47;;;;;;;13.48;6.22;;;;;;;28.67;55.45;100813.13;4992313;28;20045;-80
2023/07/18 00:20:39;;;;;;;12.73;5.68;;;;;;;29.14;54.35;100814.38;4995470;28;20045;-80
2023/07/18 00:23:34;;;;;;;14.15;5.50;;;;;;;29.30;54.70;100821.97;4966359;28;20045;-81
2023/07/18 00:26:28;;;;;;;11.85;5.70;;;;;;;29.32;54.56;100813.91;4991279;28;20057;-81
2023/07/18 00:29:23;;;;;;;10.45;5.10;;;;;;;29.14;55.29;100813.59;4981066;28;20049;-81
2023/07/18 00:32:17;;;;;;;20.42;6.93;;;;;;;29.14;54.99;100813.59;4978992;28;20049;-80
2023/07/18 00:35:14;;;;;;;13.75;6.63;;;;;;;29.03;54.43;100810.28;4982553;28;20042;-80
2023/07/18 00:38:09;;;;;;;16.67;5.75;;;;;;;28.94;54.92;100821.31;4993397;28;20053;-80
2023/07/18 00:41:15;;;;;;;20.38;6.55;;;;;;;29.17;54.63;100812.69;5089558;28;20932;-78
2023/07/18 00:44:09;;;;;;;10.13;6.68;;;;;;;29.29;54.33;100815.56;5076835;28;20043;-79
2023/07/18 00:47:01;;;;;;;17.65;7.35;;;;;;;28.94;55.06;100821.31;5089146;28;20051;-80
2023/07/18 00:49:53;;;;;;;12.80;6.35;;;;;;;28.92;56.00;100813.34;5092859;28;20059;-82
2023/07/18 00:52:54;;;;;;;34.22;8.77;;;;;;;28.87;55.92;100811.06;5091186;28;20515;-79
2023/07/18 00:55:49;;;;;;;15.98;7.15;;;;;;;29.07;55.05;100817.34;5080094;28;20063;-80
2023/07/18 00:58:45;;;;;;;14.13;7.00;;;;;;;29.26;54.62;100822.03;5095024;28;20043;-78
2023/07/18 01:01:39;;;;;;;14.52;6.65;;;;;;;29.13;54.98;100817.59;5074943;28;20409;-78
2023/07/18 01:04:34;;;;;;;16.70;7.13;;;;;;;29.10;54.98;100813.69;5088980;28;20051;-79
2023/07/18 01:07:28;;;;;;;10.98;6.10;;;;;;;29.26;54.98;100812.84;5089650;28;20523;-79
2023/07/18 01:10:25;;;;;;;11.80;6.32;;;;;;;29.46;54.93;100819.13;5093275;28;20040;-79
2023/07/18 01:13:19;;;;;;;12.25;6.18;;;;;;;29.48;54.18;100825.09;5076907;28;20047;-79
2023/07/18 01:16:15;;;;;;;13.48;6.50;;;;;;;29.55;54.15;100830.50;5088520;28;20047;-78
2023/07/18 01:19:09;;;;;;;14.05;5.97;;;;;;;29.49;54.48;100828.69;5092056;28;20055;-80
2023/07/18 01:22:04;;;;;;;15.43;7.97;;;;;;;29.16;55.19;100830.72;5089222;28;20404;-79
2023/07/18 01:24:59;;;;;;;11.02;7.57;;;;;;;28.64;57.42;100820.41;5093273;28;20098;-81
2023/07/18 01:27:54;;;;;;;13.60;9.07;;;;;;;28.83;56.40;100827.97;5090524;28;20051;-80
2023/07/18 01:30:49;;;;;;;18.02;8.75;;;;;;;29.07;56.65;100836.16;5088298;28;20047;-81
2023/07/18 01:33:46;;;;;;;15.20;7.40;;;;;;;28.97;56.75;100832.41;5090986;28;20047;-80
2023/07/18 01:36:41;;;;;;;13.75;7.43;;;;;;;29.09;56.33;100840.13;5088347;28;20051;-81
2023/07/18 01:39:37;;;;;;;11.93;7.07;;;;;;;29.12;56.37;100832.84;5092083;28;20036;-79
2023/07/18 01:42:32;;;;;;;14.07;7.88;;;;;;;29.05;56.13;100833.03;5089944;28;20047;-78
2023/07/18 01:45:24;;;;;;;;;;;;;;;29.04;55.71;100826.63;5074339;28;20524;-80
2023/07/18 01:48:16;;;;;;;35.42;8.98;;;;;;;29.01;55.00;100830.31;5091211;28;20301;-79
2023/07/18 01:51:10;;;;;;;25.27;8.52;;;;;;;29.06;54.89;100834.59;5069515;28;20405;-79
2023/07/18 01:54:02;;;;;;;;;;;;;;;29.18;55.18;100831.88;5062697;28;20043;-79
2023/07/18 01:56:57;;;;;;;29.02;7.68;;;;;;;29.16;55.16;100845.53;5062840;28;19912;-79
2023/07/18 01:59:51;;;;;;;19.58;7.70;;;;;;;29.11;54.71;100843.25;5061061;28;20035;-82
2023/07/18 02:02:46;;;;;;;34.92;7.28;;;;;;;29.04;55.49;100843.44;5074195;28;20051;-82
2023/07/18 02:05:41;;;;;;;26.88;8.18;;;;;;;29.04;55.03;100848.25;5067730;28;20048;-82
2023/07/18 02:08:33;;;;;;;25.65;7.43;;;;;;;29.13;55.04;100848.41;5067009;28;20417;-83
2023/07/18 02:11:28;;;;;;;22.50;8.30;;;;;;;28.94;55.31;100850.09;5067255;28;20513;-82
2023/07/18 02:14:20;;;;;;;;;;;;;;;28.71;56.07;100853.81;5075941;28;20055;-82
2023/07/18 02:17:14;;;;;;;13.40;6.65;;;;;;;28.83;54.16;100847.56;5066869;28;19912;-82
2023/07/18 02:20:11;;;;;;;21.35;6.43;;;;;;;28.82;54.01;100848.78;5057347;28;20056;-82
2023/07/18 02:23:06;;;;;;;17.30;6.40;;;;;;;28.60;55.04;100842.06;5076251;28;20047;-82
2023/07/18 02:25:58;;;;;;;19.60;6.65;;;;;;;28.81;54.37;100847.19;5066020;28;20073;-82
2023/07/18 02:28:52;;;;;;;15.52;6.13;;;;;;;28.90;55.00;100846.59;5069893;28;20398;-82
2023/07/18 02:31:50;;;;;;;13.60;6.07;;;;;;;28.90;54.44;100855.00;5067179;28;20425;-82
2023/07/18 02:34:45;;;;;;;12.90;6.22;;;;;;;29.04;54.18;100853.84;5062616;28;20520;-82
2023/07/18 02:37:39;;;;;;;11.38;6.07;;;;;;;28.97;54.43;100854.03;5067874;28;20051;-85
2023/07/18 02:40:34;;;;;;;14.40;6.50;;;;;;;29.03;53.75;100855.88;5064224;28;20042;-83
2023/07/18 02:43:29;;;;;;;18.23;6.18;;;;;;;28.97;53.17;100863.22;5072177;28;20071;-84
2023/07/18 02:46:21;;;;;;;;;;;;;;;28.89;53.61;100859.81;5079735;28;20047;-81
2023/07/18 02:49:15;;;;;;;21.27;7.00;;;;;;;28.84;53.66;100853.94;5061813;28;19913;-83
2023/07/18 02:52:10;;;;;;;11.73;6.70;;;;;;;28.80;54.33;100854.00;5073490;28;20048;-80
2023/07/18 02:55:05;;;;;;;21.42;6.75;;;;;;;28.70;54.58;100859.88;5066091;28;20047;-81
2023/07/18 02:57:59;;;;;;;20.70;6.20;;;;;;;28.55;55.06;100853.03;5059841;28;20048;-78
2023/07/18 03:00:52;;;;;;;9.38;5.28;;;;;;;28.52;55.02;100853.88;5083052;28;20540;-82
2023/07/18 03:03:44;;;;;;;13.50;6.43;;;;;;;28.47;55.48;100849.59;5075027;28;20056;-83
2023/07/18 03:06:37;;;;;;;16.70;5.72;;;;;;;28.52;55.12;100865.84;5059628;28;20047;-83
2023/07/18 03:09:32;;;;;;;13.57;6.68;;;;;;;28.08;55.42;100868.00;5077337;28;20044;-77
2023/07/18 03:12:27;;;;;;;13.75;6.80;;;;;;;27.52;58.03;100866.31;5041085;28;20052;-79
2023/07/18 03:15:19;;;;;;;;;;;;;;;27.20;58.69;100870.44;5060819;28;20072;-75
2023/07/18 03:18:14;;;;;;;11.43;6.43;;;;;;;26.95;59.38;100864.47;5055888;28;19912;-78
2023/07/18 03:21:09;;;;;;;20.42;6.15;;;;;;;26.88;60.09;100880.53;5080706;28;20042;-76
2023/07/18 03:24:03;;;;;;;38.75;8.50;;;;;;;27.01;59.88;100878.75;5081672;28;20047;-77
2023/07/18 03:26:55;;;;;;;;;;;;;;;26.97;59.40;100884.38;5080982;28;20067;-81
2023/07/18 03:29:50;;;;;;;12.35;6.13;;;;;;;26.83;60.53;100873.41;5098502;28;19912;-78
2023/07/18 03:32:44;;;;;;;19.00;7.50;;;;;;;26.72;60.95;100883.94;5082385;28;20055;-76
2023/07/18 03:35:38;;;;;;;12.48;6.45;;;;;;;26.73;60.83;100879.94;5080516;28;20047;-79
2023/07/18 03:38:33;;;;;;;13.80;6.63;;;;;;;26.70;61.03;100883.56;5082997;28;20058;-77
2023/07/18 03:41:28;;;;;;;23.77;6.22;;;;;;;26.68;60.86;100884.00;5076982;28;20405;-77
2023/07/18 03:44:22;;;;;;;14.98;6.97;;;;;;;26.56;61.18;100884.56;5066272;28;20056;-76
2023/07/18 03:47:17;;;;;;;16.70;6.50;;;;;;;26.67;60.68;100895.56;5068542;28;20040;-78
2023/07/18 03:50:09;;;;;;;;;;;;;;;26.55;61.06;100896.94;5024854;22;20061;-78
2023/07/18 03:53:03;;;;;;;15.20;5.40;;;;;;;26.61;60.71;100897.25;5007642;28;19922;-78
2023/07/18 03:55:56;;;;;;;;;;;;;;;27.21;59.95;100902.72;5009707;28;20049;-80
2023/07/18 03:58:50;;;;;;;23.10;5.80;;;;;;;27.63;58.30;100906.03;5003403;28;19913;-79
2023/07/18 04:01:45;;;;;;;9.75;5.78;;;;;;;27.87;57.38;100906.78;4987322;28;20050;-79
2023/07/18 04:04:40;;;;;;;17.92;6.35;;;;;;;27.96;56.97;100902.19;4992206;28;20058;-78
2023/07/18 04:07:32;;;;;;;;;;;;;;;28.01;56.67;100912.06;4978575;28;20058;-79
2023/07/18 04:10:26;;;;;;;16.42;6.57;;;;;;;27.95;56.62;100914.59;4987100;28;19915;-78
2023/07/18 04:13:21;;;;;;;17.23;6.80;;;;;;;27.94;56.99;100907.41;4973442;28;20049;-78
2023/07/18 04:16:13;;;;;;;11.52;5.35;;;;;;;28.00;56.67;100914.09;4987849;28;20409;-77
2023/07/18 04:19:07;;;;;;;12.05;5.85;;;;;;;28.01;56.86;100923.25;4985940;28;20373;-78
2023/07/18 04:22:02;;;;;;;12.57;6.15;;;;;;;27.98;56.71;100910.94;4983947;28;20046;-77
2023/07/18 04:24:55;;;;;;;11.57;6.10;;;;;;;27.91;56.96;100918.66;4962799;29;20046;-78
2023/07/18 04:27:47;;;;;;;13.90;6.03;;;;;;;27.81;57.10;100916.88;4949137;29;20047;-78
2023/07/18 04:30:42;;;;;;;18.63;6.85;;;;;;;27.80;56.90;100921.66;4976582;28;20045;-78
2023/07/18 04:33:40;;;;;;;11.23;6.38;;;;;;;27.87;56.48;100918.75;4977194;28;20042;-78
2023/07/18 04:36:32;;;;;;;16.73;6.57;;;;;;;27.79;56.76;100917.28;4983769;28;20049;-78
2023/07/18 04:39:24;;;;;;;;;;;;;;;27.82;57.07;100930.41;4970740;28;20050;-78
2023/07/18 04:42:18;;;;;;;15.70;7.00;;;;;;;27.80;57.13;100924.47;4979471;28;19922;-78
2023/07/18 04:45:13;;;;;;;16.60;7.22;;;;;;;27.75;57.26;100929.75;4986521;28;20047;-77
2023/07/18 04:48:07;;;;;;;20.42;6.70;;;;;;;27.85;57.31;100937.16;4988281;28;20046;-79
2023/07/18 04:51:03;;;;;;;20.85;6.63;;;;;;;27.88;57.18;100942.69;4981338;28;20041;-78
2023/07/18 04:53:56;;;;;;;15.90;6.47;;;;;;;27.88;56.77;100941.91;4996616;28;20041;-78
2023/07/18 04:56:50;;;;;;;11.32;5.90;;;;;;;27.96;56.95;100944.13;4995653;28;20045;-78
2023/07/18 04:59:42;;;;;;;;;;;;;;;28.05;56.49;100935.94;5006153;28;20045;-79
2023/07/18 05:02:36;;;;;;;12.80;6.50;;;;;;;28.12;56.56;100934.28;5001089;28;20310;-78
2023/07/18 05:05:31;;;;;;;19.77;6.72;;;;;;;28.18;56.52;100929.75;4996964;28;20044;-78
2023/07/18 05:08:26;;;;;;;23.50;6.90;;;;;;;28.25;56.55;100932.38;5009561;28;20044;-78
2023/07/18 05:11:22;;;;;;;21.30;7.70;;;;;;;28.17;56.94;100936.56;5006129;28;20045;-79
2023/07/18 05:14:16;;;;;;;15.38;7.03;;;;;;;28.06;57.52;100937.53;4984881;28;20045;-78
2023/07/18 05:17:08;;;;;;;;;;;;;;;28.03;57.70;100935.59;5002521;28;20040;-78
2023/07/18 05:20:03;;;;;;;13.95;6.10;;;;;;;28.02;57.27;100939.63;4978209;28;20164;-79
2023/07/18 05:22:55;;;;;;;20.90;7.43;;;;;;;28.06;57.16;100943.13;4992680;28;20062;-79
2023/07/18 05:25:50;;;;;;;28.70;7.85;;;;;;;28.16;57.16;100946.97;4998882;28;20049;-79
2023/07/18 05:28:45;;;;;;;39.05;9.40;;;;;;;28.16;56.84;100946.16;4999006;28;20049;-79
2023/07/18 05:31:39;;;;;;;26.10;7.63;;;;;;;28.23;57.14;100957.22;5008156;28;20040;-79
2023/07/18 05:34:34;;;;;;;20.42;6.43;;;;;;;28.27;57.39;100957.94;4996953;28;20053;-78
2023/07/18 05:37:28;;;;;;;23.30;7.68;;;;;;;28.26;57.11;100967.53;4984088;28;20041;-80
2023/07/18 05:40:23;;;;;;;38.63;7.15;;;;;;;28.30;57.61;100969.03;4997891;28;20523;-77
2023/07/18 05:43:18;;;;;;;415.67;83.07;;;;;;;28.33;56.76;100973.00;4982164;28;20122;-77
2023/07/18 05:46:13;;;;;;;53.70;10.15;;;;;;;28.30;57.07;100968.25;4991195;28;20039;-78
2023/07/18 05:49:07;;;;;;;16.23;7.65;;;;;;;28.05;57.90;100960.31;5004496;28;20045;-78
2023/07/18 05:51:59;;;;;;;;;;;;;;;28.33;58.00;100973.00;4998343;28;20049;-78
2023/07/18 05:54:54;;;;;;;21.20;8.95;;;;;;;28.65;57.10;100972.34;4968143;29;19914;-78
2023/07/18 05:57:45;;;;;;;24.30;9.52;;;;;;;28.32;58.40;100965.81;4972186;28;20054;-78
2023/07/18 06:00:37;;;;;;;;;;;;;;;28.13;59.59;100969.41;4979223;28;20046;-78
2023/07/18 06:03:32;;;;;;;24.27;11.52;;;;;;;28.10;60.04;100965.41;4983047;28;19913;-78
2023/07/18 06:06:26;;;;;;;24.55;8.98;;;;;;;28.23;59.92;100965.63;4988528;28;20420;-78
2023/07/18 06:09:21;;;;;;;28.95;10.50;;;;;;;28.22;60.15;100969.63;4979002;28;20050;-78
2023/07/18 06:12:16;;;;;;;19.55;9.85;;;;;;;28.12;60.43;100973.41;4982720;28;20119;-78
2023/07/18 06:15:11;;;;;;;19.73;9.75;;;;;;;28.22;60.71;100972.41;4984129;28;20053;-80
2023/07/18 06:18:06;;;;;;;17.33;11.18;;;;;;;28.22;61.49;100973.22;5006031;28;20048;-79
2023/07/18 06:21:00;;;;;;;23.45;11.15;;;;;;;28.33;61.45;100976.59;5007620;28;20046;-80
2023/07/18 06:23:55;;;;;;;17.48;9.45;;;;;;;28.43;60.21;100980.41;5000606;28;20046;-77
2023/07/18 06:26:53;;;;;;;19.83;8.07;;;;;;;28.61;59.07;100972.41;4975489;28;20053;-78
2023/07/18 06:29:45;;;;;;;18.63;10.07;;;;;;;28.66;60.30;100968.28;4989129;28;20042;-77
2023/07/18 06:32:40;;;;;;;25.85;9.05;;;;;;;28.80;58.85;100971.59;4982069;28;20404;-78
2023/07/18 06:35:32;;;;;;;;;;;;;;;28.83;59.24;100975.56;5002785;28;20072;-78
2023/07/18 06:38:26;;;;;;;19.83;9.18;;;;;;;28.90;59.83;100990.16;5002149;28;19914;-77
2023/07/18 06:41:21;;;;;;;60.63;12.18;;;;;;;28.95;59.31;100988.91;4998450;28;20053;-77
2023/07/18 06:44:12;;;;;;;22.38;8.32;;;;;;;28.91;59.47;100997.34;5004282;28;20049;-78
2023/07/18 06:47:05;;;;;;;26.37;7.50;;;;;;;29.07;58.87;100993.81;4982724;28;20053;-87
2023/07/18 06:49:58;;;;;;;14.80;6.85;;;;;;;29.19;58.47;100995.94;4974281;28;20519;-88
2023/07/18 06:52:47;;;;;;;16.27;7.10;;;;;;;29.29;57.56;101002.50;4987938;28;20049;-88
2023/07/18 06:55:42;;;;;;;12.52;6.28;;;;;;;29.35;58.10;101003.59;4980509;28;20058;-89
2023/07/18 06:58:36;;;;;;;13.15;6.50;;;;;;;29.42;57.61;101014.63;4992538;28;20057;-89
2023/07/18 07:01:29;;;;;;;17.27;7.28;;;;;;;29.47;57.67;101016.09;4974083;28;20057;-89
2023/07/18 07:04:23;;;;;;;21.55;7.80;;;;;;;29.54;57.97;101015.94;5003067;28;20050;-88
2023/07/18 07:07:18;;;;;;;24.33;7.25;;;;;;;29.58;57.69;101014.63;4990173;28;20500;-87
2023/07/18 07:10:13;;;;;;;;;;;;;;;29.61;57.18;101019.34;4993263;28;20049;-88
2023/07/18 07:13:05;;;;;;;;;;;;;;;29.65;57.29;101028.47;4979034;28;19914;-87
2023/07/18 07:16:00;;;;;;;74.47;16.08;;;;;;;29.68;57.38;101013.56;4979060;28;20287;-87
2023/07/18 07:18:55;;;;;;;67.60;18.17;;;;;;;29.70;56.21;101027.16;4979517;28;20053;-87
2023/07/18 07:21:49;;;;;;;94.07;21.33;;;;;;;29.75;56.39;101023.81;4982124;28;20039;-88
2023/07/18 07:24:42;;;;;;;54.20;15.88;;;;;;;29.77;56.12;101024.94;4979312;28;20053;-89
2023/07/18 07:27:36;;;;;;;73.75;20.38;;;;;;;29.80;55.80;101023.28;4978703;28;20050;-87
2023/07/18 07:30:31;;;;;;;23.50;7.05;;;;;;;29.83;54.37;101016.00;4980487;28;20050;-87
2023/07/18 07:33:23;;;;;;;84.10;19.10;;;;;;;29.87;54.90;101016.72;4971747;28;20101;-88
2023/07/18 07:36:15;;;;;;;88.47;18.90;;;;;;;29.91;55.49;101023.03;4979666;28;20066;-87
2023/07/18 07:39:09;;;;;;;98.30;24.80;;;;;;;29.95;55.22;101026.53;4979595;28;20404;-88
2023/07/18 07:42:04;;;;;;;98.68;25.63;;;;;;;29.99;55.19;101030.03;4978288;28;20058;-86
2023/07/18 07:44:59;;;;;;;52.97;15.80;;;;;;;30.02;54.52;101029.94;4979621;28;20050;-88
2023/07/18 07:47:53;;;;;;;67.35;20.35;;;;;;;30.05;54.20;101031.09;4978716;28;20043;-86
2023/07/18 07:50:48;;;;;;;57.38;16.23;;;;;;;30.09;53.89;101032.56;4981623;28;20035;-87
2023/07/18 07:53:40;;;;;;;82.00;21.00;;;;;;;30.11;54.42;101020.91;4977953;28;20043;-87
2023/07/18 07:56:34;;;;;;;82.13;22.42;;;;;;;30.15;54.47;101021.59;4977943;28;20066;-87
2023/07/18 07:59:29;;;;;;;70.28;20.65;;;;;;;30.17;53.83;101019.16;4980643;28;20045;-88
2023/07/18 08:02:27;;;;;;;52.33;14.32;;;;;;;30.23;53.67;101025.75;4984023;28;20531;-87
2023/07/18 08:05:21;;;;;;;58.20;17.02;;;;;;;30.27;53.75;101029.28;4977617;28;20050;-87
2023/07/18 08:08:16;;;;;;;37.47;8.93;;;;;;;30.32;53.57;101025.16;4986549;28;20038;-87
2023/07/18 08:11:10;;;;;;;20.33;7.75;;;;;;;30.36;53.23;101026.63;4996828;28;20442;-87
2023/07/18 08:14:05;;;;;;;19.42;7.13;;;;;;;30.41;52.88;101020.47;4964050;28;20546;-89
2023/07/18 08:16:55;;;;;;;22.10;7.90;;;;;;;30.45;52.63;101014.75;4959878;28;20046;-88
2023/07/18 08:19:49;;;;;;;39.67;12.20;;;;;;;30.52;53.14;101015.38;4960675;28;20043;-88
2023/07/18 08:22:39;;;;;;;19.27;7.35;;;;;;;30.57;52.74;101020.44;4947077;28;20046;-88
2023/07/18 08:25:33;;;;;;;15.32;7.93;;;;;;;30.64;53.05;101015.81;4979701;28;20046;-88
2023/07/18 08:28:26;;;;;;;22.05;8.32;;;;;;;30.70;52.76;101011.22;4986227;28;20065;-88
2023/07/18 08:31:15;;;;;;;55.25;16.85;;;;;;;30.74;52.80;101006.28;4984850;28;20407;-87
2023/07/18 08:34:10;;;;;;;38.20;12.30;;;;;;;30.80;52.82;101015.75;5001535;28;20049;-88
2023/07/18 08:37:05;;;;;;;43.08;15.15;;;;;;;30.82;52.57;101013.28;4996610;28;20415;-87
2023/07/18 08:39:59;;;;;;;49.55;16.33;;;;;;;30.83;52.60;101004.38;4983647;28;20496;-86
2023/07/18 08:42:54;;;;;;;20.08;8.02;;;;;;;30.94;52.40;101012.50;4996852;28;20053;-88
2023/07/18 08:45:46;;;;;;;18.15;7.97;;;;;;;31.01;53.14;101012.28;4983408;28;20050;-87
2023/07/18 08:48:38;;;;;;;16.38;7.53;;;;;;;31.07;53.16;101007.72;4988204;28;20534;-87
2023/07/18 08:51:33;;;;;;;15.60;7.10;;;;;;;31.19;52.98;101000.53;4996693;28;20044;-88
2023/07/18 08:54:23;;;;;;;24.30;8.23;;;;;;;31.24;52.43;101000.72;4996777;28;20062;-88
2023/07/18 08:57:19;;;;;;;28.95;11.68;;;;;;;31.30;52.09;100993.31;5000544;28;20045;-87
2023/07/18 09:00:14;;;;;;;31.75;10.48;;;;;;;31.34;51.51;100993.22;4997976;28;20050;-89
2023/07/18 09:03:08;;;;;;;25.17;9.85;;;;;;;31.39;51.43;100989.84;4999748;28;20058;-88
2023/07/18 09:06:17;;;;;;;33.75;12.38;;;;;;;31.40;50.87;100997.81;4994111;28;20045;-87
2023/07/18 09:09:17;;;;;;;40.22;11.27;;;;;;;31.48;50.94;100986.34;4977249;28;20038;-89
2023/07/18 09:12:10;;;;;;;23.27;9.48;;;;;;;31.51;51.04;100979.78;4977694;28;20050;-88
2023/07/18 09:15:02;;;;;;;36.00;12.65;;;;;;;31.59;50.93;100976.34;4973572;28;20070;-90
2023/07/18 09:18:05;;;;;;;27.77;8.05;;;;;;;31.66;51.04;100981.69;4981640;28;20042;-88
2023/07/18 09:20:59;;;;;;;20.88;7.53;;;;;;;31.71;51.23;100983.16;4975042;28;20047;-89
2023/07/18 09:23:52;;;;;;;18.38;8.30;;;;;;;31.77;50.83;100982.13;4973340;28;20527;-88
2023/07/18 09:26:50;;;;;;;16.65;7.25;;;;;;;31.84;50.87;100984.69;4991300;28;20041;-87
2023/07/18 09:29:45;;;;;;;14.75;6.93;;;;;;;31.89;50.88;100977.72;4981061;28;20045;-88
2023/07/18 09:32:40;;;;;;;13.68;6.70;;;;;;;31.98;50.52;100980.59;4988152;28;20057;-88
2023/07/18 09:35:36;;;;;;;19.02;7.32;;;;;;;32.04;50.75;100977.97;4988135;28;20511;-89
2023/07/18 09:38:31;;;;;;;15.23;6.57;;;;;;;32.09;50.85;100968.97;4981776;28;20094;-88
2023/07/18 09:41:33;;;;;;;15.95;6.50;;;;;;;32.14;50.16;100972.00;4976927;28;20054;-88
2023/07/18 09:44:28;;;;;;;18.33;5.00;;;;;;;32.22;50.08;100975.31;4979634;28;20046;-87
2023/07/18 09:47:20;;;;;;;12.02;4.82;;;;;;;32.28;49.75;100970.69;4980159;28;20053;-87
2023/07/18 09:50:14;;;;;;;22.80;6.25;;;;;;;32.36;47.78;100979.63;5007013;23;20061;-86
2023/07/18 09:53:10;;;;;;;13.88;4.60;;;;;;;32.42;44.80;100975.00;4988045;28;20145;-86
2023/07/18 09:56:02;;;;;;;12.73;4.68;;;;;;;32.50;44.28;100977.09;4998177;28;20049;-86
2023/07/18 09:58:53;;;;;;;14.23;4.25;;;;;;;32.59;42.48;100979.19;4963213;28;20070;-86
2023/07/18 10:01:40;;;;;;;29.10;4.45;;;;;;;32.69;41.80;100972.38;4986130;28;20065;-87
2023/07/18 10:04:35;;;;;;;24.58;4.35;;;;;;;32.77;41.44;100968.03;4988060;28;20057;-86
2023/07/18 10:07:27;;;;;;;29.83;5.90;;;;;;;32.80;42.17;100955.84;4981573;28;20049;-87
2023/07/18 10:10:21;;;;;;;9.65;4.10;;;;;;;32.83;41.90;100960.53;4987095;28;20053;-87
2023/07/18 10:13:09;;;;;;;19.90;4.85;;;;;;;32.93;41.42;100959.34;4984435;28;20041;-87
2023/07/18 10:16:20;;;;;;;11.35;4.20;;;;;;;33.04;41.94;100956.09;4999619;28;20425;-86
2023/07/18 10:19:24;;;;;;;15.65;4.47;;;;;;;33.09;42.55;100966.75;4967325;28;20409;-86
2023/07/18 10:22:25;;;;;;;12.82;4.15;;;;;;;33.16;43.37;100957.22;4986150;28;20412;-87
2023/07/18 10:25:21;;;;;;;17.75;4.80;;;;;;;33.22;43.09;100955.41;4990677;28;20045;-86
2023/07/18 10:28:18;;;;;;;7.25;4.65;;;;;;;33.30;44.13;100948.22;4981291;28;20110;-86
2023/07/18 10:31:27;;;;;;;11.73;4.88;;;;;;;33.32;44.33;100943.66;4986780;28;20520;-87
2023/07/18 10:34:19;;;;;;;16.15;4.68;;;;;;;33.39;43.63;100963.13;4991891;28;20130;-87
2023/07/18 10:37:14;;;;;;;10.57;4.85;;;;;;;33.39;43.67;100954.66;4984579;28;20114;-87
2023/07/18 10:40:09;;;;;;;24.10;5.30;;;;;;;33.52;43.90;100958.13;4991597;28;20053;-87
2023/07/18 10:43:02;;;;;;;18.17;4.90;;;;;;;33.57;43.43;100948.28;4981698;28;20046;-87
2023/07/18 10:45:57;;;;;;;13.05;4.90;;;;;;;33.60;43.74;100938.84;4986035;28;20049;-87
2023/07/18 10:48:50;;;;;;;10.52;4.10;;;;;;;33.66;43.49;100948.28;4996893;28;20531;-86
2023/07/18 10:51:40;;;;;;;9.82;4.40;;;;;;;33.68;43.46;100940.13;4990015;28;20045;-87
2023/07/18 10:54:28;;;;;;;12.00;4.90;;;;;;;33.70;43.21;100923.53;4999507;28;20046;-87
2023/07/18 10:57:25;;;;;;;15.02;4.70;;;;;;;33.77;43.44;100928.88;4994850;28;20041;-87
2023/07/18 11:00:18;;;;;;;10.27;5.05;;;;;;;33.79;43.42;100920.72;4997645;28;20045;-87
2023/07/18 11:03:17;;;;;;;;;;;;;;;33.83;43.15;100921.34;4981235;28;20057;-87
2023/07/18 11:06:09;;;;;;;26.75;5.30;;;;;;;33.86;42.64;100919.63;4986983;28;19913;-87
2023/07/18 11:09:00;;;;;;;16.38;5.43;;;;;;;33.91;42.59;100908.50;4990814;28;20050;-87
2023/07/18 11:11:52;;;;;;;12.43;4.78;;;;;;;33.94;42.79;100906.75;4980644;28;20041;-89
2023/07/18 11:14:47;;;;;;;13.13;5.30;;;;;;;34.02;42.22;100905.19;5000803;28;20045;-86
2023/07/18 11:17:38;;;;;;;13.38;4.57;;;;;;;34.10;42.00;100899.97;4996876;28;20417;-85
2023/07/18 11:20:32;;;;;;;19.75;5.45;;;;;;;34.14;42.18;100901.38;4984264;28;20053;-87
2023/07/18 11:23:25;;;;;;;12.35;4.03;;;;;;;34.16;41.92;100895.28;4987582;28;20069;-88
2023/07/18 11:26:21;;;;;;;13.82;4.50;;;;;;;34.22;42.11;100882.13;4978310;28;20069;-87
2023/07/18 11:29:11;;;;;;;16.15;4.15;;;;;;;34.23;41.89;100884.47;5003961;28;20048;-87
2023/07/18 11:32:08;;;;;;;13.93;3.95;;;;;;;34.28;41.86;100878.19;4986102;28;20069;-89
2023/07/18 11:35:04;;;;;;;8.98;5.20;;;;;;;34.33;41.38;100876.75;4998369;28;20053;-90
2023/07/18 11:37:59;;;;;;;9.50;4.53;;;;;;;34.37;41.67;100870.94;4978506;28;20054;-89
2023/07/18 11:40:53;;;;;;;10.57;4.03;;;;;;;34.44;41.44;100868.53;4977564;28;20041;-90
2023/07/18 11:43:51;;;;;;;10.60;4.95;;;;;;;34.46;41.82;100854.72;4995945;28;20041;-89
2023/07/18 11:46:46;;;;;;;17.50;5.35;;;;;;;34.44;41.26;100848.75;4984909;28;20050;-89
2023/07/18 11:49:40;;;;;;;10.68;3.83;;;;;;;34.48;40.80;100840.91;4995735;28;20061;-90
2023/07/18 11:52:36;;;;;;;8.95;5.43;;;;;;;34.53;41.47;100839.50;4996798;28;20037;-89
2023/07/18 11:55:30;;;;;;;15.48;4.60;;;;;;;34.58;41.37;100842.44;4996453;28;20095;-89
2023/07/18 11:58:24;;;;;;;23.75;4.53;;;;;;;34.69;40.34;100847.59;4978512;28;20415;-89
2023/07/18 12:01:18;;;;;;;9.07;4.85;;;;;;;34.72;40.05;100838.16;4983270;28;20414;-89
2023/07/18 12:04:17;;;;;;;11.07;4.70;;;;;;;34.73;40.18;100836.91;4994090;28;20057;-88
2023/07/18 12:07:10;;;;;;;9.88;4.10;;;;;;;34.74;39.97;100827.16;4991055;28;20049;-88
2023/07/18 12:10:05;;;;;;;13.77;5.20;;;;;;;34.71;40.32;100820.41;4993250;28;20049;-86
2023/07/18 12:13:00;;;;;;;13.45;4.47;;;;;;;34.73;40.12;100820.72;4985547;28;20045;-87
2023/07/18 12:16:00;;;;;;;14.75;3.90;;;;;;;34.75;40.31;100818.19;4995672;28;20045;-87
2023/07/18 12:19:22;;;;;;;7.57;3.65;;;;;;;34.78;39.97;100810.81;4989563;28;20049;-86
2023/07/18 12:22:19;;;;;;;10.77;3.85;;;;;;;34.87;39.28;100804.31;4996824;28;20045;-87
2023/07/18 12:25:11;;;;;;;16.23;4.38;;;;;;;34.89;38.48;100776.34;5009778;28;20053;-87
2023/07/18 12:28:03;;;;;;;9.63;3.47;;;;;;;34.94;38.21;100778.53;5015967;28;20407;-87
2023/07/18 12:30:57;;;;;;;12.77;4.40;;;;;;;34.97;37.95;100766.22;4987631;28;20423;-88
2023/07/18 12:33:49;;;;;;;24.30;5.50;;;;;;;34.98;37.36;100767.81;4997051;28;20041;-88
2023/07/18 12:36:44;;;;;;;16.85;4.25;;;;;;;35.04;36.98;100760.22;5001119;28;20435;-88
2023/07/18 12:39:36;;;;;;;14.27;5.00;;;;;;;35.07;36.57;100745.09;4984271;28;20049;-88
2023/07/18 12:42:31;;;;;;;14.52;4.03;;;;;;;35.11;36.47;100735.16;4995989;28;20049;-86
2023/07/18 12:45:23;;;;;;;14.05;4.60;;;;;;;35.14;36.94;100736.25;4996611;28;20061;-86
2023/07/18 12:48:15;;;;;;;12.10;4.15;;;;;;;35.15;37.06;100732.19;4996879;28;20530;-87
2023/07/18 12:51:10;;;;;;;8.75;3.33;;;;;;;35.15;37.29;100735.00;4985607;28;20045;-88
2023/07/18 12:53:59;;;;;;;9.15;4.10;;;;;;;35.22;38.07;100733.84;4976522;28;20535;-87
2023/07/18 12:56:54;;;;;;;19.80;4.18;;;;;;;35.27;37.56;100725.47;4985656;28;20042;-91
2023/07/18 12:59:46;;;;;;;17.20;5.32;;;;;;;35.26;38.10;100723.91;4980100;28;20505;-88
2023/07/18 13:02:38;;;;;;;20.25;4.80;;;;;;;35.29;38.11;100713.69;4983444;28;20046;-87
2023/07/18 13:05:28;;;;;;;12.38;4.13;;;;;;;35.37;37.96;100714.84;5014479;28;20053;-87
2023/07/18 13:08:23;;;;;;;11.35;3.78;;;;;;;35.42;37.48;100711.34;5007316;28;20045;-87
2023/07/18 13:11:17;;;;;;;14.55;4.97;;;;;;;35.44;37.37;100698.28;4994260;28;20053;-87
2023/07/18 13:14:12;;;;;;;9.90;3.80;;;;;;;35.45;36.96;100699.84;4994975;28;20062;-87
2023/07/18 13:17:06;;;;;;;12.40;4.53;;;;;;;35.49;37.10;100691.16;4980729;28;20070;-87
2023/07/18 13:20:01;;;;;;;8.35;3.70;;;;;;;35.44;37.62;100686.97;4977023;28;20046;-88
2023/07/18 13:22:53;;;;;;;9.73;3.70;;;;;;;35.42;37.50;100680.22;4975342;28;20042;-87
2023/07/18 13:25:47;;;;;;;48.05;4.45;;;;;;;35.47;37.96;100674.66;4981565;28;20050;-87